sensor_id;sensor_type;location;lat;lon;timestamp;pressure;altitude;pressure_sealevel;temperature;humidity
73974;BME280;62336;-26.094;27.994;2024-01-07T00:01:14;84820.30;;;34.83;17.83
73974;BME280;62336;-26.094;27.994;2024-01-07T00:03:41;84818.80;;;35.08;17.68
73974;BME280;62336;-26.094;27.994;2024-01-07T00:06:06;84813.57;;;34.70;17.87
73974;BME280;62336;-26.094;27.994;2024-01-07T00:08:32;84808.91;;;34.92;17.80
73974;BME280;62336;-26.094;27.994;2024-01-07T00:10:58;84808.69;;;35.07;17.76
73974;BME280;62336;-26.094;27.994;2024-01-07T00:13:23;84810.31;;;35.61;17.26
73974;BME280;62336;-26.094;27.994;2024-01-07T00:15:49;84812.62;;;35.54;17.06
73974;BME280;62336;-26.094;27.994;2024-01-07T00:18:15;84810.79;;;35.12;17.47
73974;BME280;62336;-26.094;27.994;2024-01-07T00:20:41;84809.92;;;34.54;17.81
73974;BME280;62336;-26.094;27.994;2024-01-07T00:23:06;84808.68;;;35.12;17.54
73974;BME280;62336;-26.094;27.994;2024-01-07T00:25:32;84808.22;;;35.15;17.58
73974;BME280;62336;-26.094;27.994;2024-01-07T00:27:58;84806.44;;;34.42;18.12
73974;BME280;62336;-26.094;27.994;2024-01-07T00:30:24;84806.62;;;35.34;17.77
73974;BME280;62336;-26.094;27.994;2024-01-07T00:32:49;84806.28;;;34.70;18.15
73974;BME280;62336;-26.094;27.994;2024-01-07T00:35:15;84807.31;;;34.82;18.02
73974;BME280;62336;-26.094;27.994;2024-01-07T00:37:41;84809.57;;;35.46;17.39
73974;BME280;62336;-26.094;27.994;2024-01-07T00:40:08;84808.70;;;35.33;17.49
73974;BME280;62336;-26.094;27.994;2024-01-07T00:42:33;84811.32;;;34.83;18.05
73974;BME280;62336;-26.094;27.994;2024-01-07T00:44:58;84813.02;;;33.98;18.59
73974;BME280;62336;-26.094;27.994;2024-01-07T00:47:24;84816.06;;;33.85;18.55
73974;BME280;62336;-26.094;27.994;2024-01-07T00:49:49;84821.17;;;34.30;18.46
73974;BME280;62336;-26.094;27.994;2024-01-07T00:52:15;84826.40;;;34.24;18.40
73974;BME280;62336;-26.094;27.994;2024-01-07T00:54:41;84831.00;;;35.21;17.58
73974;BME280;62336;-26.094;27.994;2024-01-07T00:57:06;84827.86;;;35.34;17.49
73974;BME280;62336;-26.094;27.994;2024-01-07T00:59:32;84831.40;;;35.96;17.16
73974;BME280;62336;-26.094;27.994;2024-01-07T01:01:57;84830.07;;;36.16;17.27
73974;BME280;62336;-26.094;27.994;2024-01-07T01:04:23;84832.67;;;35.53;17.74
73974;BME280;62336;-26.094;27.994;2024-01-07T01:06:49;84831.65;;;35.15;17.90
73974;BME280;62336;-26.094;27.994;2024-01-07T01:09:14;84830.56;;;35.54;17.71
73974;BME280;62336;-26.094;27.994;2024-01-07T01:11:40;84827.67;;;35.44;17.59
73974;BME280;62336;-26.094;27.994;2024-01-07T01:14:05;84833.91;;;35.20;17.90
73974;BME280;62336;-26.094;27.994;2024-01-07T01:16:31;84835.74;;;34.50;18.34
73974;BME280;62336;-26.094;27.994;2024-01-07T01:18:56;84836.03;;;34.85;18.17
73974;BME280;62336;-26.094;27.994;2024-01-07T01:21:21;84835.29;;;34.96;18.10
73974;BME280;62336;-26.094;27.994;2024-01-07T01:23:48;84838.17;;;35.09;18.15
73974;BME280;62336;-26.094;27.994;2024-01-07T01:26:12;84841.59;;;34.32;18.67
73974;BME280;62336;-26.094;27.994;2024-01-07T01:28:38;84840.83;;;34.52;18.62
73974;BME280;62336;-26.094;27.994;2024-01-07T01:31:04;84840.58;;;34.92;18.23
73974;BME280;62336;-26.094;27.994;2024-01-07T01:33:29;84844.28;;;35.16;18.06
73974;BME280;62336;-26.094;27.994;2024-01-07T01:35:54;84845.14;;;34.90;18.29
73974;BME280;62336;-26.094;27.994;2024-01-07T01:38:20;84846.94;;;34.83;18.36
73974;BME280;62336;-26.094;27.994;2024-01-07T01:40:52;84853.37;;;35.22;18.08
73974;BME280;62336;-26.094;27.994;2024-01-07T01:43:11;84857.86;;;35.29;18.03
73974;BME280;62336;-26.094;27.994;2024-01-07T01:45:36;84857.07;;;35.20;18.11
73974;BME280;62336;-26.094;27.994;2024-01-07T01:48:03;84854.79;;;34.78;18.26
73974;BME280;62336;-26.094;27.994;2024-01-07T01:50:27;84854.78;;;35.03;18.20
73974;BME280;62336;-26.094;27.994;2024-01-07T01:52:53;84856.13;;;34.90;18.66
73974;BME280;62336;-26.094;27.994;2024-01-07T01:55:19;84852.12;;;33.50;19.42
73974;BME280;62336;-26.094;27.994;2024-01-07T01:57:45;84852.57;;;33.21;19.65
73974;BME280;62336;-26.094;27.994;2024-01-07T02:00:11;84855.17;;;33.72;19.73
73974;BME280;62336;-26.094;27.994;2024-01-07T02:02:35;84854.95;;;34.23;19.01
73974;BME280;62336;-26.094;27.994;2024-01-07T02:05:01;84851.80;;;34.62;18.70
73974;BME280;62336;-26.094;27.994;2024-01-07T02:07:27;84850.02;;;34.55;18.94
73974;BME280;62336;-26.094;27.994;2024-01-07T02:09:52;84849.41;;;33.25;19.84
73974;BME280;62336;-26.094;27.994;2024-01-07T02:12:18;84849.69;;;33.50;19.90
73974;BME280;62336;-26.094;27.994;2024-01-07T02:14:43;84849.48;;;33.43;19.95
73974;BME280;62336;-26.094;27.994;2024-01-07T02:17:08;84849.30;;;33.81;19.54
73974;BME280;62336;-26.094;27.994;2024-01-07T02:19:33;84848.07;;;34.49;19.03
73974;BME280;62336;-26.094;27.994;2024-01-07T02:21:59;84849.22;;;34.50;19.06
73974;BME280;62336;-26.094;27.994;2024-01-07T02:24:25;84849.68;;;33.98;19.53
73974;BME280;62336;-26.094;27.994;2024-01-07T02:26:50;84848.84;;;33.90;19.48
73974;BME280;62336;-26.094;27.994;2024-01-07T02:29:15;84848.75;;;34.00;19.82
73974;BME280;62336;-26.094;27.994;2024-01-07T02:31:40;84849.45;;;34.86;19.02
73974;BME280;62336;-26.094;27.994;2024-01-07T02:34:07;84849.94;;;34.83;18.73
73974;BME280;62336;-26.094;27.994;2024-01-07T02:36:32;84848.09;;;34.13;19.11
73974;BME280;62336;-26.094;27.994;2024-01-07T02:38:57;84847.74;;;33.96;19.64
73974;BME280;62336;-26.094;27.994;2024-01-07T02:41:22;84846.80;;;34.03;19.54
73974;BME280;62336;-26.094;27.994;2024-01-07T02:43:48;84842.64;;;34.07;19.33
73974;BME280;62336;-26.094;27.994;2024-01-07T02:46:14;84842.15;;;34.42;18.98
73974;BME280;62336;-26.094;27.994;2024-01-07T02:48:39;84843.29;;;34.20;19.66
73974;BME280;62336;-26.094;27.994;2024-01-07T02:51:05;84842.47;;;33.60;20.16
73974;BME280;62336;-26.094;27.994;2024-01-07T02:53:30;84843.99;;;33.87;19.91
73974;BME280;62336;-26.094;27.994;2024-01-07T02:55:55;84844.71;;;34.13;19.47
73974;BME280;62336;-26.094;27.994;2024-01-07T02:58:20;84847.77;;;34.10;19.50
73974;BME280;62336;-26.094;27.994;2024-01-07T03:00:46;84847.49;;;33.63;19.63
73974;BME280;62336;-26.094;27.994;2024-01-07T03:03:12;84850.76;;;33.81;19.95
73974;BME280;62336;-26.094;27.994;2024-01-07T03:05:37;84850.90;;;33.31;20.05
73974;BME280;62336;-26.094;27.994;2024-01-07T03:08:04;84852.81;;;33.66;19.97
73974;BME280;62336;-26.094;27.994;2024-01-07T03:10:28;84856.29;;;33.77;20.01
73974;BME280;62336;-26.094;27.994;2024-01-07T03:12:54;84861.08;;;34.19;19.43
73974;BME280;62336;-26.094;27.994;2024-01-07T03:15:19;84862.92;;;34.62;18.91
73974;BME280;62336;-26.094;27.994;2024-01-07T03:17:45;84864.81;;;35.02;18.67
73974;BME280;62336;-26.094;27.994;2024-01-07T03:20:11;84870.44;;;34.71;18.61
73974;BME280;62336;-26.094;27.994;2024-01-07T03:22:35;84872.52;;;34.70;18.60
73974;BME280;62336;-26.094;27.994;2024-01-07T03:25:01;84879.30;;;34.64;18.62
73974;BME280;62336;-26.094;27.994;2024-01-07T03:27:26;84883.94;;;34.89;18.62
73974;BME280;62336;-26.094;27.994;2024-01-07T03:29:52;84889.78;;;34.92;18.69
73974;BME280;62336;-26.094;27.994;2024-01-07T03:32:17;84897.42;;;34.74;18.82
73974;BME280;62336;-26.094;27.994;2024-01-07T03:34:42;84903.13;;;34.06;19.56
73974;BME280;62336;-26.094;27.994;2024-01-07T03:37:08;84904.73;;;33.73;19.81
73974;BME280;62336;-26.094;27.994;2024-01-07T03:39:34;84908.13;;;33.74;19.78
73974;BME280;62336;-26.094;27.994;2024-01-07T03:41:59;84911.57;;;34.20;19.47
73974;BME280;62336;-26.094;27.994;2024-01-07T03:44:25;84914.90;;;33.87;19.78
73974;BME280;62336;-26.094;27.994;2024-01-07T03:46:50;84911.70;;;33.21;20.04
73974;BME280;62336;-26.094;27.994;2024-01-07T03:49:17;84913.48;;;33.18;20.14
73974;BME280;62336;-26.094;27.994;2024-01-07T03:51:42;84916.30;;;33.39;20.21
73974;BME280;62336;-26.094;27.994;2024-01-07T03:54:07;84924.16;;;33.29;19.93
73974;BME280;62336;-26.094;27.994;2024-01-07T03:56:32;84932.37;;;34.72;19.08
73974;BME280;62336;-26.094;27.994;2024-01-07T03:58:58;84938.94;;;33.67;19.53
73974;BME280;62336;-26.094;27.994;2024-01-07T04:01:24;84941.41;;;33.33;19.89
73974;BME280;62336;-26.094;27.994;2024-01-07T04:03:49;84942.19;;;33.58;19.96
73974;BME280;62336;-26.094;27.994;2024-01-07T04:06:14;84948.56;;;33.86;19.71
73974;BME280;62336;-26.094;27.994;2024-01-07T04:08:40;84948.63;;;33.67;19.81
73974;BME280;62336;-26.094;27.994;2024-01-07T04:11:05;84949.94;;;33.54;19.86
73974;BME280;62336;-26.094;27.994;2024-01-07T04:13:31;84952.12;;;33.65;20.09
73974;BME280;62336;-26.094;27.994;2024-01-07T04:15:56;84955.80;;;33.91;19.80
73974;BME280;62336;-26.094;27.994;2024-01-07T04:18:21;84957.08;;;34.06;19.76
73974;BME280;62336;-26.094;27.994;2024-01-07T04:20:46;84958.35;;;33.22;20.05
73974;BME280;62336;-26.094;27.994;2024-01-07T04:23:11;84956.04;;;33.74;19.83
73974;BME280;62336;-26.094;27.994;2024-01-07T04:25:37;84959.49;;;34.16;19.64
73974;BME280;62336;-26.094;27.994;2024-01-07T04:28:02;84959.32;;;34.22;19.40
73974;BME280;62336;-26.094;27.994;2024-01-07T04:30:27;84956.19;;;34.96;19.29
73974;BME280;62336;-26.094;27.994;2024-01-07T04:32:53;84959.56;;;34.43;19.36
73974;BME280;62336;-26.094;27.994;2024-01-07T04:35:19;84953.92;;;34.66;19.22
73974;BME280;62336;-26.094;27.994;2024-01-07T04:37:45;84951.88;;;34.55;19.16
73974;BME280;62336;-26.094;27.994;2024-01-07T04:40:11;84953.06;;;34.63;19.32
73974;BME280;62336;-26.094;27.994;2024-01-07T04:42:35;84957.62;;;34.72;19.18
73974;BME280;62336;-26.094;27.994;2024-01-07T04:45:01;84964.37;;;35.17;18.98
73974;BME280;62336;-26.094;27.994;2024-01-07T04:47:27;84971.03;;;35.45;18.69
73974;BME280;62336;-26.094;27.994;2024-01-07T04:49:52;84977.18;;;35.26;18.85
73974;BME280;62336;-26.094;27.994;2024-01-07T04:52:18;84977.25;;;35.05;19.06
73974;BME280;62336;-26.094;27.994;2024-01-07T04:54:44;84979.87;;;34.47;19.35
73974;BME280;62336;-26.094;27.994;2024-01-07T04:57:09;84983.57;;;35.36;18.87
73974;BME280;62336;-26.094;27.994;2024-01-07T04:59:34;84986.75;;;34.98;19.24
73974;BME280;62336;-26.094;27.994;2024-01-07T05:02:00;84988.01;;;34.79;19.45
73974;BME280;62336;-26.094;27.994;2024-01-07T05:04:25;84986.44;;;34.84;19.36
73974;BME280;62336;-26.094;27.994;2024-01-07T05:06:52;84983.86;;;35.39;19.23
73974;BME280;62336;-26.094;27.994;2024-01-07T05:09:16;84979.83;;;34.88;19.22
73974;BME280;62336;-26.094;27.994;2024-01-07T05:11:41;84981.74;;;35.49;19.09
73974;BME280;62336;-26.094;27.994;2024-01-07T05:14:06;84979.15;;;35.57;19.01
73974;BME280;62336;-26.094;27.994;2024-01-07T05:16:32;84978.33;;;35.31;19.03
73974;BME280;62336;-26.094;27.994;2024-01-07T05:18:57;84977.59;;;35.32;19.08
73974;BME280;62336;-26.094;27.994;2024-01-07T05:21:22;84979.86;;;35.83;18.58
73974;BME280;62336;-26.094;27.994;2024-01-07T05:23:48;84978.23;;;36.12;18.32
73974;BME280;62336;-26.094;27.994;2024-01-07T05:26:13;84978.81;;;35.62;18.09
73974;BME280;62336;-26.094;27.994;2024-01-07T05:28:39;84977.64;;;36.07;18.18
73974;BME280;62336;-26.094;27.994;2024-01-07T05:31:04;84978.84;;;36.38;18.14
73974;BME280;62336;-26.094;27.994;2024-01-07T05:33:29;84980.23;;;36.21;17.95
73974;BME280;62336;-26.094;27.994;2024-01-07T05:35:55;84981.52;;;36.88;17.42
73974;BME280;62336;-26.094;27.994;2024-01-07T05:38:20;84980.82;;;36.53;17.58
73974;BME280;62336;-26.094;27.994;2024-01-07T05:40:45;84980.85;;;36.24;17.69
73974;BME280;62336;-26.094;27.994;2024-01-07T05:43:11;84978.80;;;36.72;17.69
73974;BME280;62336;-26.094;27.994;2024-01-07T05:45:37;84974.92;;;36.09;17.92
73974;BME280;62336;-26.094;27.994;2024-01-07T05:48:02;84978.16;;;36.28;17.65
73974;BME280;62336;-26.094;27.994;2024-01-07T05:50:27;84979.41;;;36.43;17.53
73974;BME280;62336;-26.094;27.994;2024-01-07T05:52:53;84979.78;;;36.34;17.36
73974;BME280;62336;-26.094;27.994;2024-01-07T05:55:18;84981.52;;;36.72;17.32
73974;BME280;62336;-26.094;27.994;2024-01-07T05:57:44;84979.30;;;36.21;17.37
73974;BME280;62336;-26.094;27.994;2024-01-07T06:00:10;84979.33;;;36.89;16.98
73974;BME280;62336;-26.094;27.994;2024-01-07T06:02:35;84979.47;;;36.43;17.26
73974;BME280;62336;-26.094;27.994;2024-01-07T06:04:59;84982.89;;;36.85;16.79
73974;BME280;62336;-26.094;27.994;2024-01-07T06:07:25;84981.44;;;36.87;16.55
73974;BME280;62336;-26.094;27.994;2024-01-07T06:09:51;84978.35;;;37.70;16.46
73974;BME280;62336;-26.094;27.994;2024-01-07T06:12:16;84979.62;;;37.62;16.47
73974;BME280;62336;-26.094;27.994;2024-01-07T06:14:41;84976.54;;;37.48;16.40
73974;BME280;62336;-26.094;27.994;2024-01-07T06:17:07;84978.32;;;36.96;17.48
73974;BME280;62336;-26.094;27.994;2024-01-07T06:19:32;84979.04;;;37.52;16.84
73974;BME280;62336;-26.094;27.994;2024-01-07T06:21:57;84979.22;;;37.35;16.70
73974;BME280;62336;-26.094;27.994;2024-01-07T06:24:22;84977.92;;;36.98;16.63
73974;BME280;62336;-26.094;27.994;2024-01-07T06:26:48;84980.12;;;36.95;16.84
73974;BME280;62336;-26.094;27.994;2024-01-07T06:29:14;84979.32;;;37.74;16.63
73974;BME280;62336;-26.094;27.994;2024-01-07T06:31:43;84981.52;;;38.05;16.25
73974;BME280;62336;-26.094;27.994;2024-01-07T06:34:05;84975.89;;;38.32;16.00
73974;BME280;62336;-26.094;27.994;2024-01-07T06:36:30;84976.72;;;38.70;15.99
73974;BME280;62336;-26.094;27.994;2024-01-07T06:38:56;84974.72;;;38.08;16.25
73974;BME280;62336;-26.094;27.994;2024-01-07T06:41:21;84974.97;;;38.73;15.97
73974;BME280;62336;-26.094;27.994;2024-01-07T06:43:46;84976.33;;;38.71;15.69
73974;BME280;62336;-26.094;27.994;2024-01-07T06:46:12;84978.77;;;37.59;16.10
73974;BME280;62336;-26.094;27.994;2024-01-07T06:48:37;84979.18;;;38.26;15.98
73974;BME280;62336;-26.094;27.994;2024-01-07T06:51:03;84979.35;;;38.55;15.90
73974;BME280;62336;-26.094;27.994;2024-01-07T06:53:28;84976.48;;;38.09;16.13
73974;BME280;62336;-26.094;27.994;2024-01-07T06:55:53;84975.11;;;38.16;15.94
73974;BME280;62336;-26.094;27.994;2024-01-07T06:58:19;84974.80;;;39.04;15.44
73974;BME280;62336;-26.094;27.994;2024-01-07T07:00:45;84969.91;;;38.92;15.48
73974;BME280;62336;-26.094;27.994;2024-01-07T07:03:10;84971.80;;;38.49;15.36
73974;BME280;62336;-26.094;27.994;2024-01-07T07:05:35;84968.84;;;38.46;15.61
73974;BME280;62336;-26.094;27.994;2024-01-07T07:08:02;84957.98;;;38.78;15.35
73974;BME280;62336;-26.094;27.994;2024-01-07T07:10:26;84954.68;;;38.47;15.20
73974;BME280;62336;-26.094;27.994;2024-01-07T07:12:52;84956.62;;;38.76;15.22
73974;BME280;62336;-26.094;27.994;2024-01-07T07:15:17;84952.47;;;39.28;14.88
73974;BME280;62336;-26.094;27.994;2024-01-07T07:17:42;84947.79;;;39.57;15.18
73974;BME280;62336;-26.094;27.994;2024-01-07T07:20:08;84947.48;;;39.78;15.00
73974;BME280;62336;-26.094;27.994;2024-01-07T07:22:32;84946.96;;;39.68;14.47
73974;BME280;62336;-26.094;27.994;2024-01-07T07:24:58;84946.86;;;39.91;14.56
73974;BME280;62336;-26.094;27.994;2024-01-07T07:27:23;84944.30;;;39.41;14.28
73974;BME280;62336;-26.094;27.994;2024-01-07T07:29:49;84939.48;;;39.52;14.31
73974;BME280;62336;-26.094;27.994;2024-01-07T07:32:14;84936.34;;;40.10;13.87
73974;BME280;62336;-26.094;27.994;2024-01-07T07:34:39;84936.26;;;39.72;13.74
73974;BME280;62336;-26.094;27.994;2024-01-07T07:37:05;84934.37;;;40.03;13.62
73974;BME280;62336;-26.094;27.994;2024-01-07T07:39:30;84936.69;;;40.11;14.38
73974;BME280;62336;-26.094;27.994;2024-01-07T07:41:55;84937.60;;;39.20;13.83
73974;BME280;62336;-26.094;27.994;2024-01-07T07:44:20;84935.80;;;40.03;13.63
73974;BME280;62336;-26.094;27.994;2024-01-07T07:46:46;84931.21;;;40.49;13.46
73974;BME280;62336;-26.094;27.994;2024-01-07T07:49:12;84930.84;;;40.41;13.23
73974;BME280;62336;-26.094;27.994;2024-01-07T07:51:38;84928.26;;;40.54;13.09
73974;BME280;62336;-26.094;27.994;2024-01-07T07:54:03;84925.66;;;40.44;13.12
73974;BME280;62336;-26.094;27.994;2024-01-07T07:56:28;84923.63;;;40.27;13.18
73974;BME280;62336;-26.094;27.994;2024-01-07T07:58:54;84917.54;;;41.07;12.61
73974;BME280;62336;-26.094;27.994;2024-01-07T08:01:19;84916.51;;;40.46;13.11
73974;BME280;62336;-26.094;27.994;2024-01-07T08:03:44;84913.83;;;40.61;12.64
73974;BME280;62336;-26.094;27.994;2024-01-07T08:06:09;84908.35;;;39.57;13.53
73974;BME280;62336;-26.094;27.994;2024-01-07T08:08:35;84907.77;;;40.18;13.33
73974;BME280;62336;-26.094;27.994;2024-01-07T08:11:00;84907.26;;;40.60;13.18
73974;BME280;62336;-26.094;27.994;2024-01-07T08:13:25;84904.17;;;40.07;12.55
73974;BME280;62336;-26.094;27.994;2024-01-07T08:15:51;84902.07;;;39.71;12.84
73974;BME280;62336;-26.094;27.994;2024-01-07T08:18:17;84901.83;;;40.30;13.20
73974;BME280;62336;-26.094;27.994;2024-01-07T08:20:43;84896.48;;;40.62;12.11
73974;BME280;62336;-26.094;27.994;2024-01-07T08:23:08;84892.78;;;40.01;12.49
73974;BME280;62336;-26.094;27.994;2024-01-07T08:25:34;84889.55;;;40.20;12.53
73974;BME280;62336;-26.094;27.994;2024-01-07T08:28:00;84887.34;;;40.71;12.12
73974;BME280;62336;-26.094;27.994;2024-01-07T08:30:26;84887.48;;;40.89;13.43
73974;BME280;62336;-26.094;27.994;2024-01-07T08:32:52;84878.45;;;41.32;12.55
73974;BME280;62336;-26.094;27.994;2024-01-07T08:35:18;84876.32;;;40.54;12.26
73974;BME280;62336;-26.094;27.994;2024-01-07T08:37:43;84873.92;;;40.29;12.25
73974;BME280;62336;-26.094;27.994;2024-01-07T08:40:10;84871.26;;;40.83;12.24
73974;BME280;62336;-26.094;27.994;2024-01-07T08:42:35;84867.99;;;41.44;11.49
73974;BME280;62336;-26.094;27.994;2024-01-07T08:45:01;84864.58;;;40.64;12.24
73974;BME280;62336;-26.094;27.994;2024-01-07T08:47:27;84866.23;;;41.30;11.78
73974;BME280;62336;-26.094;27.994;2024-01-07T08:49:52;84863.75;;;41.25;11.74
73974;BME280;62336;-26.094;27.994;2024-01-07T08:52:17;84863.07;;;41.32;11.66
73974;BME280;62336;-26.094;27.994;2024-01-07T08:54:42;84864.48;;;41.69;10.78
73974;BME280;62336;-26.094;27.994;2024-01-07T08:57:08;84864.52;;;41.78;10.89
73974;BME280;62336;-26.094;27.994;2024-01-07T08:59:33;84860.66;;;41.76;10.93
73974;BME280;62336;-26.094;27.994;2024-01-07T09:01:59;84858.24;;;41.64;11.10
73974;BME280;62336;-26.094;27.994;2024-01-07T09:04:24;84857.87;;;42.01;11.64
73974;BME280;62336;-26.094;27.994;2024-01-07T09:06:49;84859.56;;;42.18;10.58
73974;BME280;62336;-26.094;27.994;2024-01-07T09:09:14;84862.26;;;42.11;10.52
73974;BME280;62336;-26.094;27.994;2024-01-07T09:11:39;84857.55;;;41.73;10.74
73974;BME280;62336;-26.094;27.994;2024-01-07T09:14:05;84852.05;;;41.81;10.88
73974;BME280;62336;-26.094;27.994;2024-01-07T09:16:30;84854.28;;;41.86;11.23
73974;BME280;62336;-26.094;27.994;2024-01-07T09:18:55;84847.83;;;42.16;12.04
73974;BME280;62336;-26.094;27.994;2024-01-07T09:21:20;84850.80;;;42.03;11.92
73974;BME280;62336;-26.094;27.994;2024-01-07T09:23:45;84852.90;;;41.74;12.06
73974;BME280;62336;-26.094;27.994;2024-01-07T09:26:10;84851.97;;;42.04;11.72
73974;BME280;62336;-26.094;27.994;2024-01-07T09:28:36;84847.56;;;42.89;11.82
73974;BME280;62336;-26.094;27.994;2024-01-07T09:31:00;84848.71;;;41.89;11.70
73974;BME280;62336;-26.094;27.994;2024-01-07T09:33:25;84843.28;;;42.46;11.40
73974;BME280;62336;-26.094;27.994;2024-01-07T09:35:50;84840.84;;;42.64;11.20
73974;BME280;62336;-26.094;27.994;2024-01-07T09:38:15;84836.69;;;43.02;11.10
73974;BME280;62336;-26.094;27.994;2024-01-07T09:40:40;84838.84;;;42.20;12.07
73974;BME280;62336;-26.094;27.994;2024-01-07T09:43:05;84836.33;;;41.55;11.94
73974;BME280;62336;-26.094;27.994;2024-01-07T09:45:31;84835.05;;;41.76;11.65
73974;BME280;62336;-26.094;27.994;2024-01-07T09:47:55;84832.94;;;42.13;11.61
73974;BME280;62336;-26.094;27.994;2024-01-07T09:50:21;84827.13;;;42.20;11.38
73974;BME280;62336;-26.094;27.994;2024-01-07T09:52:48;84821.88;;;42.27;11.45
73974;BME280;62336;-26.094;27.994;2024-01-07T09:55:18;84821.50;;;42.50;12.12
73974;BME280;62336;-26.094;27.994;2024-01-07T09:57:40;84819.55;;;42.25;10.64
73974;BME280;62336;-26.094;27.994;2024-01-07T10:00:04;84817.74;;;42.68;10.53
73974;BME280;62336;-26.094;27.994;2024-01-07T10:02:29;84821.36;;;42.79;9.93
73974;BME280;62336;-26.094;27.994;2024-01-07T10:04:55;84819.71;;;42.40;10.60
73974;BME280;62336;-26.094;27.994;2024-01-07T10:07:20;84810.12;;;42.19;10.16
73974;BME280;62336;-26.094;27.994;2024-01-07T10:09:45;84805.43;;;42.40;10.40
73974;BME280;62336;-26.094;27.994;2024-01-07T10:12:10;84803.83;;;42.66;9.99
73974;BME280;62336;-26.094;27.994;2024-01-07T10:14:35;84803.36;;;42.76;10.33
73974;BME280;62336;-26.094;27.994;2024-01-07T10:17:00;84799.37;;;42.30;10.58
73974;BME280;62336;-26.094;27.994;2024-01-07T10:19:25;84795.63;;;42.31;10.83
73974;BME280;62336;-26.094;27.994;2024-01-07T10:22:00;84793.66;;;42.08;10.64
73974;BME280;62336;-26.094;27.994;2024-01-07T10:24:16;84789.91;;;42.41;10.72
73974;BME280;62336;-26.094;27.994;2024-01-07T10:26:41;84787.30;;;42.10;11.12
73974;BME280;62336;-26.094;27.994;2024-01-07T10:29:07;84786.60;;;43.00;10.39
73974;BME280;62336;-26.094;27.994;2024-01-07T10:31:32;84785.34;;;42.99;10.51
73974;BME280;62336;-26.094;27.994;2024-01-07T10:33:56;84777.62;;;43.28;10.10
73974;BME280;62336;-26.094;27.994;2024-01-07T10:36:22;84780.75;;;43.11;10.37
73974;BME280;62336;-26.094;27.994;2024-01-07T10:38:46;84778.00;;;42.54;10.57
73974;BME280;62336;-26.094;27.994;2024-01-07T10:41:12;84769.26;;;42.74;10.23
73974;BME280;62336;-26.094;27.994;2024-01-07T10:43:37;84766.53;;;43.07;10.62
73974;BME280;62336;-26.094;27.994;2024-01-07T10:46:02;84760.49;;;43.55;10.52
73974;BME280;62336;-26.094;27.994;2024-01-07T10:48:30;84758.77;;;44.10;9.90
73974;BME280;62336;-26.094;27.994;2024-01-07T10:50:54;84752.90;;;43.81;9.94
73974;BME280;62336;-26.094;27.994;2024-01-07T10:53:21;84746.96;;;44.11;9.99
73974;BME280;62336;-26.094;27.994;2024-01-07T10:55:44;84742.12;;;44.03;10.26
73974;BME280;62336;-26.094;27.994;2024-01-07T10:58:06;84741.46;;;43.99;9.78
73974;BME280;62336;-26.094;27.994;2024-01-07T11:00:32;84740.11;;;43.70;9.87
73974;BME280;62336;-26.094;27.994;2024-01-07T11:03:06;84738.08;;;44.10;10.59
73974;BME280;62336;-26.094;27.994;2024-01-07T11:05:28;84729.85;;;44.46;10.08
73974;BME280;62336;-26.094;27.994;2024-01-07T11:07:52;84732.69;;;44.57;10.43
73974;BME280;62336;-26.094;27.994;2024-01-07T11:10:16;84736.32;;;44.28;9.46
73974;BME280;62336;-26.094;27.994;2024-01-07T11:12:36;84729.39;;;44.65;9.95
73974;BME280;62336;-26.094;27.994;2024-01-07T11:15:02;84723.43;;;44.56;9.89
73974;BME280;62336;-26.094;27.994;2024-01-07T11:19:52;84718.36;;;45.00;9.43
73974;BME280;62336;-26.094;27.994;2024-01-07T11:22:22;84712.49;;;44.99;9.05
73974;BME280;62336;-26.094;27.994;2024-01-07T11:24:41;84708.74;;;44.96;9.18
73974;BME280;62336;-26.094;27.994;2024-01-07T11:27:08;84706.13;;;44.97;9.33
73974;BME280;62336;-26.094;27.994;2024-01-07T11:29:32;84701.68;;;44.81;9.36
73974;BME280;62336;-26.094;27.994;2024-01-07T11:31:57;84692.88;;;44.43;9.40
73974;BME280;62336;-26.094;27.994;2024-01-07T11:34:39;84682.88;;;43.80;9.43
73974;BME280;62336;-26.094;27.994;2024-01-07T11:36:47;84678.78;;;43.71;9.32
73974;BME280;62336;-26.094;27.994;2024-01-07T11:39:12;84679.49;;;43.69;9.16
73974;BME280;62336;-26.094;27.994;2024-01-07T11:41:38;84677.84;;;44.28;9.20
73974;BME280;62336;-26.094;27.994;2024-01-07T11:44:02;84674.94;;;44.54;9.01
73974;BME280;62336;-26.094;27.994;2024-01-07T11:46:27;84678.20;;;44.83;9.59
73974;BME280;62336;-26.094;27.994;2024-01-07T11:48:55;84672.35;;;44.08;8.78
73974;BME280;62336;-26.094;27.994;2024-01-07T11:51:17;84665.03;;;43.91;8.61
73974;BME280;62336;-26.094;27.994;2024-01-07T11:53:42;84657.06;;;44.38;8.64
73974;BME280;62336;-26.094;27.994;2024-01-07T11:56:09;84646.05;;;45.17;8.13
73974;BME280;62336;-26.094;27.994;2024-01-07T11:58:32;84639.14;;;45.19;8.20
73974;BME280;62336;-26.094;27.994;2024-01-07T12:00:58;84638.59;;;44.95;8.17
73974;BME280;62336;-26.094;27.994;2024-01-07T12:03:24;84636.00;;;44.89;8.77
73974;BME280;62336;-26.094;27.994;2024-01-07T12:05:48;84632.93;;;44.06;9.44
73974;BME280;62336;-26.094;27.994;2024-01-07T12:08:13;84633.69;;;44.59;8.85
73974;BME280;62336;-26.094;27.994;2024-01-07T12:10:38;84635.49;;;44.98;8.62
73974;BME280;62336;-26.094;27.994;2024-01-07T12:13:03;84633.47;;;45.09;8.59
73974;BME280;62336;-26.094;27.994;2024-01-07T12:15:28;84626.60;;;44.83;8.75
73974;BME280;62336;-26.094;27.994;2024-01-07T12:17:56;84633.29;;;44.88;8.60
73974;BME280;62336;-26.094;27.994;2024-01-07T12:20:18;84644.23;;;44.64;9.38
73974;BME280;62336;-26.094;27.994;2024-01-07T12:22:43;84641.75;;;44.59;9.69
73974;BME280;62336;-26.094;27.994;2024-01-07T12:25:09;84636.01;;;44.40;9.72
73974;BME280;62336;-26.094;27.994;2024-01-07T12:27:34;84634.63;;;44.45;9.94
73974;BME280;62336;-26.094;27.994;2024-01-07T12:29:59;84632.08;;;44.08;10.62
73974;BME280;62336;-26.094;27.994;2024-01-07T12:32:26;84641.09;;;43.88;10.73